createdAt,value
2023-03-16T00:00:07.644Z,99.99
2023-03-16T00:01:07.648Z,99.99
2023-03-16T00:02:07.747Z,99.99
2023-03-16T00:03:07.777Z,99.99
2023-03-16T00:04:07.605Z,99.99
2023-03-16T00:05:07.670Z,99.99
2023-03-16T00:06:10.675Z,99.99
2023-03-16T00:07:07.651Z,99.99
2023-03-16T00:08:07.654Z,99.99
2023-03-16T00:09:07.646Z,99.99
2023-03-16T00:10:07.687Z,99.99
2023-03-16T00:11:07.652Z,99.99
2023-03-16T00:12:07.704Z,99.99
2023-03-16T00:13:07.637Z,99.99
2023-03-16T00:14:07.642Z,99.99
2023-03-16T00:15:07.694Z,99.99
2023-03-16T00:16:07.957Z,99.99
2023-03-16T00:17:07.868Z,99.99
2023-03-16T00:18:07.647Z,99.99
2023-03-16T00:19:07.642Z,99.99
2023-03-16T00:20:07.708Z,99.99
2023-03-16T00:21:07.685Z,99.99
2023-03-16T00:22:07.691Z,99.99
2023-03-16T00:23:07.664Z,99.99
2023-03-16T00:24:07.637Z,99.99
2023-03-16T00:25:07.676Z,99.99
2023-03-16T00:26:07.724Z,99.99
2023-03-16T00:27:07.684Z,99.99
2023-03-16T00:28:10.517Z,99.99
2023-03-16T00:29:07.658Z,99.99
2023-03-16T00:30:07.778Z,99.99
2023-03-16T00:31:07.681Z,99.99
2023-03-16T00:32:07.776Z,99.99
2023-03-16T00:33:07.824Z,99.99
2023-03-16T00:34:07.675Z,99.99
2023-03-16T00:35:11.088Z,99.99
2023-03-16T00:36:07.665Z,99.99
2023-03-16T00:37:08.697Z,99.99
2023-03-16T00:38:07.659Z,99.99
2023-03-16T00:39:10.724Z,99.99
2023-03-16T00:40:07.679Z,99.99
2023-03-16T00:41:07.708Z,99.99
2023-03-16T00:42:07.703Z,99.99
2023-03-16T00:43:07.692Z,99.99
2023-03-16T00:44:08.745Z,99.99
2023-03-16T00:45:07.684Z,99.99
2023-03-16T00:46:07.912Z,99.99
2023-03-16T00:47:07.676Z,99.99
2023-03-16T00:48:07.729Z,99.99
2023-03-16T00:49:07.672Z,99.99
2023-03-16T00:50:07.918Z,99.99
2023-03-16T00:51:07.688Z,99.99
2023-03-16T00:52:07.699Z,99.99
2023-03-16T00:53:07.672Z,99.99
2023-03-16T00:54:07.704Z,99.99
2023-03-16T00:55:07.729Z,99.99
2023-03-16T00:56:07.695Z,99.99
2023-03-16T00:57:07.688Z,99.99
2023-03-16T00:58:07.728Z,99.99
2023-03-16T00:59:07.724Z,99.99
2023-03-16T01:00:07.705Z,99.99
2023-03-16T01:01:07.863Z,99.99
2023-03-16T01:02:07.702Z,99.99
2023-03-16T01:03:07.907Z,99.99
2023-03-16T01:04:07.732Z,99.99
2023-03-16T01:05:07.735Z,99.99
2023-03-16T01:06:07.713Z,99.99
2023-03-16T01:07:07.757Z,99.99
2023-03-16T01:08:07.725Z,99.99
2023-03-16T01:09:07.706Z,99.99
2023-03-16T01:10:07.750Z,99.99
2023-03-16T01:11:10.548Z,99.99
2023-03-16T01:12:07.720Z,99.99
2023-03-16T01:13:07.748Z,99.99
2023-03-16T01:14:07.795Z,99.99
2023-03-16T01:15:07.758Z,99.99
2023-03-16T01:16:07.753Z,99.99
2023-03-16T01:17:07.975Z,99.99
2023-03-16T01:18:07.728Z,99.99
2023-03-16T01:19:07.740Z,99.99
2023-03-16T01:20:07.780Z,99.99
2023-03-16T01:21:07.759Z,99.99
2023-03-16T01:22:10.551Z,99.99
2023-03-16T01:23:07.737Z,99.99
2023-03-16T01:24:07.734Z,99.99
2023-03-16T01:25:07.770Z,99.99
2023-03-16T01:26:07.803Z,99.99
2023-03-16T01:27:07.843Z,99.99
2023-03-16T01:28:07.743Z,99.99
2023-03-16T01:29:07.754Z,99.99
2023-03-16T01:30:07.780Z,99.99
2023-03-16T01:31:07.937Z,99.99
2023-03-16T01:32:07.766Z,99.99
2023-03-16T01:33:10.995Z,99.99
2023-03-16T01:34:07.744Z,99.99
2023-03-16T01:35:07.752Z,99.99
2023-03-16T01:36:07.955Z,99.99
2023-03-16T01:37:07.808Z,99.99
2023-03-16T01:38:07.758Z,99.99
2023-03-16T01:39:07.759Z,99.99
2023-03-16T01:40:07.766Z,99.99
2023-03-16T01:41:07.746Z,99.99
2023-03-16T01:42:07.764Z,99.99
2023-03-16T01:43:07.756Z,99.99
2023-03-16T01:44:07.774Z,99.99
2023-03-16T01:45:07.790Z,99.99
2023-03-16T01:46:08.111Z,99.99
2023-03-16T01:47:07.784Z,99.99
2023-03-16T01:48:07.896Z,99.99
2023-03-16T01:49:07.772Z,99.99
2023-03-16T01:50:07.801Z,99.99
2023-03-16T01:51:08.594Z,99.99
2023-03-16T01:52:07.886Z,99.99
2023-03-16T01:53:07.775Z,99.99
2023-03-16T01:54:07.791Z,99.99
2023-03-16T01:55:07.781Z,99.99
2023-03-16T01:56:07.889Z,99.99
2023-03-16T01:57:07.796Z,99.99
2023-03-16T01:58:07.805Z,99.99
2023-03-16T01:59:07.787Z,99.99
2023-03-16T02:00:10.736Z,99.99
2023-03-16T02:01:07.947Z,99.99
2023-03-16T02:02:07.841Z,99.99
2023-03-16T02:03:07.827Z,99.99
2023-03-16T02:04:07.946Z,99.99
2023-03-16T02:05:07.803Z,99.99
2023-03-16T02:06:07.846Z,99.99
2023-03-16T02:07:07.813Z,99.99
2023-03-16T02:08:07.959Z,99.99
2023-03-16T02:09:07.808Z,99.99
2023-03-16T02:10:07.814Z,99.99
2023-03-16T02:11:09.260Z,99.99
2023-03-16T02:12:07.810Z,99.99
2023-03-16T02:13:07.810Z,99.99
2023-03-16T02:14:07.818Z,99.99
2023-03-16T02:15:07.832Z,99.99
2023-03-16T02:16:07.949Z,99.99
2023-03-16T02:17:07.816Z,99.99
2023-03-16T02:18:07.879Z,99.99
2023-03-16T02:19:07.823Z,99.99
2023-03-16T02:20:07.826Z,99.99
2023-03-16T02:21:07.862Z,99.99
2023-03-16T02:22:10.841Z,99.99
2023-03-16T02:23:07.854Z,99.99
2023-03-16T02:24:07.865Z,99.99
2023-03-16T02:25:07.841Z,99.99
2023-03-16T02:26:07.857Z,99.99
2023-03-16T02:27:07.841Z,99.99
2023-03-16T02:28:07.850Z,99.99
2023-03-16T02:29:07.832Z,99.99
2023-03-16T02:30:07.855Z,99.99
2023-03-16T02:31:08.169Z,99.99
2023-03-16T02:32:07.880Z,99.99
2023-03-16T02:33:10.724Z,99.99
2023-03-16T02:34:07.905Z,99.99
2023-03-16T02:35:07.848Z,99.99
2023-03-16T02:36:07.980Z,99.99
2023-03-16T02:37:07.834Z,99.99
2023-03-16T02:38:07.846Z,99.99
2023-03-16T02:39:07.853Z,99.99
2023-03-16T02:40:08.004Z,99.99
2023-03-16T02:41:07.876Z,99.99
2023-03-16T02:42:07.904Z,99.99
2023-03-16T02:43:07.899Z,99.99
2023-03-16T02:44:10.722Z,99.99
2023-03-16T02:45:07.884Z,99.99
2023-03-16T02:46:07.973Z,99.99
2023-03-16T02:47:07.902Z,99.99
2023-03-16T02:48:07.896Z,99.99
2023-03-16T02:49:07.869Z,99.99
2023-03-16T02:50:07.928Z,99.99
2023-03-16T02:51:07.868Z,99.99
2023-03-16T02:52:07.948Z,99.99
2023-03-16T02:53:07.909Z,99.99
2023-03-16T02:54:07.905Z,99.99
2023-03-16T02:55:10.689Z,99.99
2023-03-16T02:56:07.869Z,99.99
2023-03-16T02:57:07.955Z,99.99
2023-03-16T02:58:07.885Z,99.99
2023-03-16T02:59:07.897Z,99.99
2023-03-16T03:00:07.887Z,99.99
2023-03-16T03:01:07.902Z,99.99
2023-03-16T03:02:09.787Z,99.99
2023-03-16T03:03:08.021Z,99.99
2023-03-16T03:04:07.908Z,99.99
2023-03-16T03:05:07.935Z,99.99
2023-03-16T03:06:10.697Z,99.99
2023-03-16T03:07:07.888Z,99.99
2023-03-16T03:08:07.966Z,99.99
2023-03-16T03:09:07.964Z,99.99
2023-03-16T03:10:07.930Z,99.99
2023-03-16T03:11:08.004Z,99.99
2023-03-16T03:12:07.938Z,99.99
2023-03-16T03:13:07.937Z,99.99
2023-03-16T03:14:07.950Z,99.99
2023-03-16T03:15:07.936Z,99.99
2023-03-16T03:16:08.027Z,99.99
2023-03-16T03:17:07.928Z,99.99
2023-03-16T03:18:07.942Z,99.99
2023-03-16T03:19:07.974Z,99.99
2023-03-16T03:20:07.955Z,99.99
2023-03-16T03:21:07.972Z,99.99
2023-03-16T03:22:08.012Z,99.99
2023-03-16T03:23:07.958Z,99.99
2023-03-16T03:24:08.019Z,99.99
2023-03-16T03:25:08.011Z,99.99
2023-03-16T03:26:07.940Z,99.99
2023-03-16T03:27:08.014Z,99.99
2023-03-16T03:28:08.255Z,99.99
2023-03-16T03:29:07.963Z,99.99
2023-03-16T03:30:07.955Z,99.99
2023-03-16T03:31:08.050Z,99.99
2023-03-16T03:32:07.999Z,99.99
2023-03-16T03:33:08.219Z,99.99
2023-03-16T03:34:08.007Z,99.99
2023-03-16T03:35:07.950Z,99.99
2023-03-16T03:36:08.141Z,99.99
2023-03-16T03:37:09.008Z,99.99
2023-03-16T03:38:10.736Z,99.99
2023-03-16T03:39:07.959Z,99.99
2023-03-16T03:40:07.947Z,99.99
2023-03-16T03:41:07.979Z,99.99
2023-03-16T03:42:07.961Z,99.99
2023-03-16T03:43:07.999Z,99.99
2023-03-16T03:44:07.962Z,99.99
2023-03-16T03:45:08.001Z,99.99
2023-03-16T03:46:08.349Z,99.99
2023-03-16T03:47:08.182Z,99.99
2023-03-16T03:48:07.975Z,99.99
2023-03-16T03:49:10.780Z,99.99
2023-03-16T03:50:07.980Z,99.99
2023-03-16T03:51:07.983Z,99.99
2023-03-16T03:52:07.995Z,99.99
2023-03-16T03:53:08.017Z,99.99
2023-03-16T03:54:08.004Z,99.99
2023-03-16T03:55:07.991Z,99.99
2023-03-16T03:56:07.970Z,99.99
2023-03-16T03:57:07.986Z,99.99
2023-03-16T03:58:07.991Z,99.99
2023-03-16T03:59:07.997Z,99.99
2023-03-16T04:00:10.836Z,99.99
2023-03-16T04:01:07.985Z,99.99
2023-03-16T04:02:08.362Z,99.99
2023-03-16T04:03:08.305Z,99.99
2023-03-16T04:04:08.020Z,99.99
2023-03-16T04:05:08.019Z,99.99
2023-03-16T04:06:07.994Z,99.99
2023-03-16T04:07:08.025Z,99.99
2023-03-16T04:08:10.286Z,99.99
2023-03-16T04:09:07.989Z,99.99
2023-03-16T04:10:08.049Z,99.99
2023-03-16T04:11:08.001Z,99.99
2023-03-16T04:12:07.857Z,99.99
2023-03-16T04:13:08.006Z,99.99
2023-03-16T04:14:08.000Z,99.99
2023-03-16T04:15:08.227Z,99.99
2023-03-16T04:16:08.004Z,99.99
2023-03-16T04:17:08.098Z,99.99
2023-03-16T04:18:08.018Z,99.99
2023-03-16T04:19:08.007Z,99.99
2023-03-16T04:20:08.009Z,99.99
2023-03-16T04:21:08.016Z,99.99
2023-03-16T04:22:08.050Z,99.99
2023-03-16T04:23:07.950Z,99.99
2023-03-16T04:24:08.043Z,99.99
2023-03-16T04:25:09.042Z,99.99
2023-03-16T04:26:07.867Z,99.99
2023-03-16T04:27:09.327Z,99.99
2023-03-16T04:28:08.004Z,99.99
2023-03-16T04:29:07.864Z,99.99
2023-03-16T04:30:08.036Z,99.99
2023-03-16T04:31:08.152Z,99.99
2023-03-16T04:32:08.097Z,99.99
2023-03-16T04:33:08.296Z,99.99
2023-03-16T04:34:08.016Z,99.99
2023-03-16T04:35:08.042Z,99.99
2023-03-16T04:36:08.171Z,99.99
2023-03-16T04:37:08.064Z,99.99
2023-03-16T04:38:10.883Z,99.99
2023-03-16T04:39:08.053Z,99.99
2023-03-16T04:40:09.805Z,99.99
2023-03-16T04:41:08.036Z,99.99
2023-03-16T04:42:08.089Z,99.99
2023-03-16T04:43:08.044Z,99.99
2023-03-16T04:44:08.035Z,99.99
2023-03-16T04:45:08.044Z,99.99
2023-03-16T04:46:08.189Z,99.99
2023-03-16T04:47:08.094Z,99.99
2023-03-16T04:48:08.062Z,99.99
2023-03-16T04:49:10.889Z,99.99
2023-03-16T04:50:08.079Z,99.99
2023-03-16T04:51:08.082Z,99.99
2023-03-16T04:52:07.908Z,99.99
2023-03-16T04:53:08.110Z,99.99
2023-03-16T04:54:08.081Z,99.99
2023-03-16T04:55:08.066Z,99.99
2023-03-16T04:56:08.053Z,99.99
2023-03-16T04:57:08.107Z,99.99
2023-03-16T04:58:08.117Z,99.99
2023-03-16T04:59:08.071Z,99.99
2023-03-16T05:00:10.879Z,99.99
2023-03-16T05:01:08.226Z,99.99
2023-03-16T05:02:08.126Z,99.99
2023-03-16T05:03:07.956Z,99.99
2023-03-16T05:04:08.080Z,99.99
2023-03-16T05:05:08.191Z,99.99
2023-03-16T05:06:08.099Z,99.99
2023-03-16T05:07:08.079Z,99.99
2023-03-16T05:08:08.185Z,99.99
2023-03-16T05:09:08.100Z,99.99
2023-03-16T05:10:08.156Z,99.99
2023-03-16T05:11:10.854Z,99.99
2023-03-16T05:12:08.105Z,99.99
2023-03-16T05:13:08.097Z,99.99
2023-03-16T05:14:08.137Z,99.99
2023-03-16T05:15:08.119Z,99.99
2023-03-16T05:16:08.271Z,99.99
2023-03-16T05:17:08.094Z,99.99
2023-03-16T05:18:08.097Z,99.99
2023-03-16T05:19:08.151Z,99.99
2023-03-16T05:20:07.949Z,99.99
2023-03-16T05:21:08.097Z,99.99
2023-03-16T05:22:11.223Z,99.99
2023-03-16T05:23:08.117Z,99.99
2023-03-16T05:24:08.102Z,99.99
2023-03-16T05:25:08.115Z,99.99
2023-03-16T05:26:08.171Z,99.99
2023-03-16T05:27:08.157Z,99.99
2023-03-16T05:28:08.120Z,99.99
2023-03-16T05:29:08.128Z,99.99
2023-03-16T05:30:08.150Z,99.99
2023-03-16T05:31:08.322Z,99.99
2023-03-16T05:32:08.130Z,99.99
2023-03-16T05:33:11.154Z,99.99
2023-03-16T05:34:08.122Z,99.99
2023-03-16T05:35:08.172Z,99.99
2023-03-16T05:36:08.337Z,99.99
2023-03-16T05:37:08.117Z,99.99
2023-03-16T05:38:08.141Z,99.99
2023-03-16T05:39:08.243Z,99.99
2023-03-16T05:40:08.139Z,99.99
2023-03-16T05:41:08.682Z,99.99
2023-03-16T05:42:08.311Z,99.99
2023-03-16T05:43:08.148Z,99.99
2023-03-16T05:44:08.189Z,99.99
2023-03-16T05:45:08.146Z,99.99
2023-03-16T05:46:08.244Z,99.99
2023-03-16T05:47:08.305Z,99.99
2023-03-16T05:48:08.154Z,99.99
2023-03-16T05:49:08.155Z,99.99
2023-03-16T05:50:08.168Z,99.99
2023-03-16T05:51:08.193Z,99.99
2023-03-16T05:52:08.168Z,99.99
2023-03-16T05:53:08.199Z,99.99
2023-03-16T05:54:08.184Z,99.99
2023-03-16T05:55:08.152Z,99.99
2023-03-16T05:56:08.190Z,99.99
2023-03-16T05:57:08.170Z,99.99
2023-03-16T05:58:08.391Z,99.99
2023-03-16T05:59:08.180Z,99.99
2023-03-16T06:00:08.169Z,99.99
2023-03-16T06:01:08.181Z,99.99
2023-03-16T06:02:08.201Z,99.99
2023-03-16T06:03:08.537Z,99.99
2023-03-16T06:04:08.347Z,99.99
2023-03-16T06:05:11.002Z,99.99
2023-03-16T06:06:08.185Z,99.99
2023-03-16T06:07:08.195Z,99.99
2023-03-16T06:08:08.210Z,99.99
2023-03-16T06:09:08.176Z,99.99
2023-03-16T06:10:08.185Z,99.99
2023-03-16T06:11:08.231Z,99.99
2023-03-16T06:12:08.197Z,99.99
2023-03-16T06:13:08.219Z,99.99
2023-03-16T06:14:08.182Z,99.99
2023-03-16T06:15:08.202Z,99.99
2023-03-16T06:16:11.109Z,99.99
2023-03-16T06:17:08.199Z,99.99
2023-03-16T06:18:08.254Z,99.99
2023-03-16T06:19:08.196Z,99.99
2023-03-16T06:20:08.189Z,99.99
2023-03-16T06:21:08.209Z,99.99
2023-03-16T06:22:08.406Z,99.99
2023-03-16T06:23:08.249Z,99.99
2023-03-16T06:24:08.198Z,99.99
2023-03-16T06:25:08.211Z,99.99
2023-03-16T06:26:08.215Z,99.99
2023-03-16T06:27:10.999Z,99.99
2023-03-16T06:28:08.269Z,99.99
2023-03-16T06:29:08.193Z,99.99
2023-03-16T06:30:08.222Z,99.99
2023-03-16T06:31:08.307Z,99.99
2023-03-16T06:32:08.235Z,99.99
2023-03-16T06:33:08.576Z,99.99
2023-03-16T06:34:08.242Z,99.99
2023-03-16T06:35:08.229Z,99.99
2023-03-16T06:36:08.272Z,99.99
2023-03-16T06:37:08.214Z,99.99
2023-03-16T06:38:11.370Z,99.99
2023-03-16T06:39:08.254Z,99.99
2023-03-16T06:40:08.252Z,99.99
2023-03-16T06:41:08.233Z,99.99
2023-03-16T06:42:08.251Z,99.99
2023-03-16T06:43:08.273Z,99.99
2023-03-16T06:44:08.237Z,99.99
2023-03-16T06:45:08.232Z,99.99
2023-03-16T06:46:08.227Z,99.99
2023-03-16T06:47:08.256Z,99.99
2023-03-16T06:48:08.288Z,99.99
2023-03-16T06:49:08.245Z,99.99
2023-03-16T06:50:08.282Z,99.99
2023-03-16T06:51:08.240Z,99.99
2023-03-16T06:52:08.263Z,99.99
2023-03-16T06:53:08.350Z,99.99
2023-03-16T06:54:11.346Z,99.99
2023-03-16T06:55:08.277Z,99.99
2023-03-16T06:56:08.266Z,99.99
2023-03-16T06:57:08.325Z,99.99
2023-03-16T06:58:08.290Z,99.99
2023-03-16T06:59:08.294Z,99.99
2023-03-16T07:00:08.259Z,99.99
2023-03-16T07:01:08.409Z,99.99
2023-03-16T07:02:08.272Z,99.99
2023-03-16T07:03:08.295Z,99.99
2023-03-16T07:04:08.431Z,99.99
2023-03-16T07:05:11.045Z,99.99
2023-03-16T07:06:08.288Z,99.99
2023-03-16T07:07:08.266Z,99.99
2023-03-16T07:08:08.287Z,99.99
2023-03-16T07:09:08.266Z,99.99
2023-03-16T07:10:08.292Z,99.99
2023-03-16T07:11:08.298Z,99.99
2023-03-16T07:12:08.268Z,99.99
2023-03-16T07:13:08.365Z,99.99
2023-03-16T07:14:08.277Z,99.99
2023-03-16T07:15:08.295Z,99.99
2023-03-16T07:16:11.153Z,99.99
2023-03-16T07:17:08.355Z,99.99
2023-03-16T07:18:08.292Z,99.99
2023-03-16T07:19:08.344Z,99.99
2023-03-16T07:20:08.292Z,99.99
2023-03-16T07:21:08.332Z,99.99
2023-03-16T07:22:08.283Z,99.99
2023-03-16T07:23:08.326Z,99.99
2023-03-16T07:24:08.285Z,99.99
2023-03-16T07:25:08.315Z,99.99
2023-03-16T07:26:08.432Z,99.99
2023-03-16T07:27:13.656Z,99.99
2023-03-16T07:28:08.344Z,99.99
2023-03-16T07:29:08.316Z,99.99
2023-03-16T07:30:08.323Z,99.99
2023-03-16T07:31:08.312Z,99.99
2023-03-16T07:32:08.513Z,99.99
2023-03-16T07:33:08.615Z,99.99
2023-03-16T07:34:08.303Z,99.99
2023-03-16T07:35:08.324Z,99.99
2023-03-16T07:36:08.617Z,99.99
2023-03-16T07:37:08.344Z,99.99
2023-03-16T07:38:08.564Z,99.99
2023-03-16T07:39:08.367Z,99.99
2023-03-16T07:40:08.322Z,99.99
2023-03-16T07:41:08.460Z,99.99
2023-03-16T07:42:08.385Z,99.99
2023-03-16T07:43:08.423Z,99.99
2023-03-16T07:44:08.366Z,99.99
2023-03-16T07:45:08.362Z,99.99
2023-03-16T07:46:08.424Z,99.99
2023-03-16T07:47:08.360Z,99.99
2023-03-16T07:48:08.371Z,99.99
2023-03-16T07:49:11.330Z,99.99
2023-03-16T07:50:08.336Z,99.99
2023-03-16T07:51:08.353Z,99.99
2023-03-16T07:52:08.350Z,99.99
2023-03-16T07:53:08.402Z,99.99
2023-03-16T07:54:08.340Z,99.99
2023-03-16T07:55:08.346Z,99.99
2023-03-16T07:56:08.327Z,99.99
2023-03-16T07:57:08.346Z,99.99
2023-03-16T07:58:08.388Z,99.99
2023-03-16T07:59:08.330Z,99.99
2023-03-16T08:00:11.373Z,99.99
2023-03-16T08:01:08.368Z,99.99
2023-03-16T08:02:08.435Z,99.99
2023-03-16T08:03:08.435Z,99.99
2023-03-16T08:04:08.460Z,99.99
2023-03-16T08:05:08.359Z,99.99
2023-03-16T08:06:08.414Z,99.99
2023-03-16T08:07:08.347Z,99.99
2023-03-16T08:08:08.371Z,99.99
2023-03-16T08:09:08.415Z,99.99
2023-03-16T08:10:08.360Z,99.99
2023-03-16T08:11:08.386Z,99.99
2023-03-16T08:12:08.354Z,99.99
2023-03-16T08:13:08.522Z,99.99
2023-03-16T08:14:08.402Z,99.99
2023-03-16T08:15:08.401Z,99.99
2023-03-16T08:16:08.487Z,99.99
2023-03-16T08:17:08.372Z,99.99
2023-03-16T08:18:08.392Z,99.99
2023-03-16T08:19:08.397Z,99.99
2023-03-16T08:20:08.405Z,99.99
2023-03-16T08:21:08.375Z,99.99
2023-03-16T08:22:08.384Z,99.99
2023-03-16T08:23:08.411Z,99.99
2023-03-16T08:24:08.394Z,99.99
2023-03-16T08:25:08.516Z,99.99
2023-03-16T08:26:08.413Z,99.99
2023-03-16T08:27:08.391Z,99.99
2023-03-16T08:28:08.418Z,99.99
2023-03-16T08:29:08.529Z,99.99
2023-03-16T08:30:08.437Z,99.99
2023-03-16T08:31:08.479Z,99.99
2023-03-16T08:32:11.145Z,99.99
2023-03-16T08:33:08.603Z,99.99
2023-03-16T08:34:08.393Z,99.99
2023-03-16T08:35:08.434Z,99.99
2023-03-16T08:36:08.541Z,99.99
2023-03-16T08:37:08.405Z,99.99
2023-03-16T08:38:08.437Z,99.99
2023-03-16T08:39:11.901Z,99.99
2023-03-16T08:40:08.407Z,99.99
2023-03-16T08:41:08.443Z,99.99
2023-03-16T08:42:08.422Z,99.99
2023-03-16T08:43:10.186Z,99.99
2023-03-16T08:44:08.419Z,99.99
2023-03-16T08:45:08.414Z,99.99
2023-03-16T08:46:08.526Z,99.99
2023-03-16T08:47:08.472Z,99.99
2023-03-16T08:48:08.424Z,99.6
2023-03-16T08:49:08.413Z,98.46
2023-03-16T08:50:08.441Z,98.55
2023-03-16T08:51:08.418Z,98.36
2023-03-16T08:52:08.426Z,98.65
2023-03-16T08:53:08.424Z,98.89
2023-03-16T08:54:11.264Z,99.46
2023-03-16T08:55:08.438Z,98.6
2023-03-16T08:56:08.441Z,97.46
2023-03-16T08:57:08.554Z,97.56
2023-03-16T08:58:08.462Z,97.36
2023-03-16T08:59:19.855Z,96.46
2023-03-16T09:00:08.431Z,95.36
2023-03-16T09:01:08.430Z,95.89
2023-03-16T09:02:08.550Z,95.79
2023-03-16T09:03:08.424Z,95.61
2023-03-16T09:04:08.610Z,95.89
2023-03-16T09:05:11.283Z,96.84
2023-03-16T09:06:08.454Z,96.56
2023-03-16T09:07:11.736Z,96.27
2023-03-16T09:08:08.507Z,96.41
2023-03-16T09:09:08.466Z,96.03
2023-03-16T09:10:08.438Z,96.22
2023-03-16T09:11:08.495Z,95.37
2023-03-16T09:12:08.545Z,95.17
2023-03-16T09:13:08.510Z,95.37
2023-03-16T09:14:08.464Z,94.89
2023-03-16T09:15:08.448Z,95.46
2023-03-16T09:16:08.647Z,94.79
2023-03-16T09:17:08.460Z,94.56
2023-03-16T09:18:08.489Z,94.32
2023-03-16T09:19:08.463Z,93.98
2023-03-16T09:20:26.780Z,93.79
2023-03-16T09:21:11.239Z,93.93
2023-03-16T09:22:08.468Z,93.65
2023-03-16T09:23:08.494Z,93.93
2023-03-16T09:24:08.460Z,93.02
2023-03-16T09:25:08.485Z,93.31
2023-03-16T09:26:08.463Z,92.36
2023-03-16T09:27:08.601Z,90.93
2023-03-16T09:28:08.529Z,90.93
2023-03-16T09:29:08.502Z,91.69
2023-03-16T09:30:08.492Z,92.65
2023-03-16T09:31:08.667Z,92.31
2023-03-16T09:32:11.348Z,91.31
2023-03-16T09:33:08.639Z,90.64
2023-03-16T09:34:08.514Z,90.55
2023-03-16T09:35:08.534Z,89.64
2023-03-16T09:36:08.590Z,88.73
2023-03-16T09:37:08.512Z,89.16
2023-03-16T09:38:09.276Z,89.73
2023-03-16T09:39:08.521Z,90.69
2023-03-16T09:40:14.052Z,89.02
2023-03-16T09:41:08.524Z,87.3
2023-03-16T09:42:08.511Z,86.63
2023-03-16T09:43:11.671Z,85.82
2023-03-16T09:44:08.361Z,85.58
2023-03-16T09:45:08.572Z,86.25
2023-03-16T09:46:08.558Z,85.3
2023-03-16T09:47:08.525Z,86.69
2023-03-16T09:48:08.373Z,86.11
2023-03-16T09:49:08.519Z,87.78
2023-03-16T09:50:08.790Z,87.68
2023-03-16T09:51:08.751Z,87.97
2023-03-16T09:52:08.573Z,86.88
2023-03-16T09:53:08.520Z,85.21
2023-03-16T09:54:11.345Z,84.59
2023-03-16T09:55:08.511Z,85.06
2023-03-16T09:56:08.545Z,85.35
2023-03-16T09:57:08.538Z,85.06
2023-03-16T09:58:08.528Z,86.21
2023-03-16T09:59:09.879Z,85.45
2023-03-16T10:00:08.545Z,85.06
2023-03-16T10:01:08.820Z,85.54
2023-03-16T10:02:08.530Z,84.69
2023-03-16T10:03:08.536Z,85.87
2023-03-16T10:04:08.753Z,85.77
2023-03-16T10:05:11.569Z,85.68
2023-03-16T10:06:08.534Z,86.25
2023-03-16T10:07:08.544Z,86.01
2023-03-16T10:08:08.554Z,85.63
2023-03-16T10:09:08.565Z,85.82
2023-03-16T10:10:08.557Z,85.34
2023-03-16T10:11:08.557Z,84.58
2023-03-16T10:12:08.544Z,83.62
2023-03-16T10:13:08.541Z,83.53
2023-03-16T10:14:08.543Z,83.14
2023-03-16T10:15:08.762Z,83.62
2023-03-16T10:16:11.707Z,83.81
2023-03-16T10:17:08.573Z,83.91
2023-03-16T10:18:08.585Z,83.34
2023-03-16T10:19:08.465Z,82.57
2023-03-16T10:20:08.586Z,83.43
2023-03-16T10:21:08.592Z,83.34
2023-03-16T10:22:08.579Z,83.67
2023-03-16T10:23:08.577Z,84.06
2023-03-16T10:24:08.655Z,83.72
2023-03-16T10:25:08.582Z,83.81
2023-03-16T10:26:08.570Z,83.11
2023-03-16T10:27:09.678Z,84
2023-03-16T10:28:08.625Z,83.72
2023-03-16T10:29:08.573Z,83.81
2023-03-16T10:30:08.759Z,83.81
2023-03-16T10:31:08.585Z,84
2023-03-16T10:32:08.799Z,83.81
2023-03-16T10:33:10.848Z,83.53
2023-03-16T10:34:08.601Z,83.43
2023-03-16T10:35:08.639Z,82.43
2023-03-16T10:36:08.812Z,82.38
2023-03-16T10:37:08.622Z,82.29
2023-03-16T10:38:08.602Z,82.48
2023-03-16T10:39:08.594Z,82.09
2023-03-16T10:40:08.653Z,82.19
2023-03-16T10:41:08.602Z,81.76
2023-03-16T10:42:09.704Z,80.99
2023-03-16T10:43:08.629Z,81.14
2023-03-16T10:44:08.628Z,81.52
2023-03-16T10:45:08.632Z,80.95
2023-03-16T10:46:08.702Z,81.33
2023-03-16T10:47:08.869Z,80.76
2023-03-16T10:48:08.647Z,80.85
2023-03-16T10:49:08.653Z,81.48
2023-03-16T10:50:08.635Z,81.24
2023-03-16T10:51:08.617Z,81.86
2023-03-16T10:52:08.663Z,81.86
2023-03-16T10:53:08.688Z,82.48
2023-03-16T10:54:08.695Z,82.32
2023-03-16T10:55:08.672Z,82.95
2023-03-16T10:56:08.659Z,83.18
2023-03-16T10:57:08.651Z,82.42
2023-03-16T10:58:08.647Z,81.18
2023-03-16T10:59:09.737Z,80.7
2023-03-16T11:00:08.656Z,80.22
2023-03-16T11:01:08.743Z,79.75
2023-03-16T11:02:08.639Z,79.94
2023-03-16T11:03:08.642Z,79.75
2023-03-16T11:04:08.874Z,79.85
2023-03-16T11:05:08.669Z,78.51
2023-03-16T11:06:08.649Z,78.64
2023-03-16T11:07:08.650Z,79.17
2023-03-16T11:08:08.640Z,79.17
2023-03-16T11:09:08.882Z,80.22
2023-03-16T11:10:11.690Z,80.22
2023-03-16T11:11:08.689Z,79.71
2023-03-16T11:12:08.682Z,80.47
2023-03-16T11:13:08.684Z,80.76
2023-03-16T11:14:08.683Z,81.14
2023-03-16T11:15:23.739Z,81.04
2023-03-16T11:16:08.662Z,81.33
2023-03-16T11:17:08.733Z,81.24
2023-03-16T11:18:08.521Z,80.8
2023-03-16T11:19:08.729Z,81.24
2023-03-16T11:20:08.750Z,81.9
2023-03-16T11:21:11.456Z,81.66
2023-03-16T11:22:08.703Z,80.8
2023-03-16T11:23:08.694Z,80.9
2023-03-16T11:24:08.779Z,80.7
2023-03-16T11:25:08.844Z,80.38
2023-03-16T11:26:08.697Z,80.09
2023-03-16T11:27:08.692Z,80.09
2023-03-16T11:28:08.697Z,80.41
2023-03-16T11:29:08.732Z,80.9
2023-03-16T11:30:08.685Z,81.47
2023-03-16T11:31:08.802Z,81.47
2023-03-16T11:32:13.471Z,80.13
2023-03-16T11:33:08.865Z,79.75
2023-03-16T11:34:09.037Z,80.51
2023-03-16T11:35:08.724Z,80.13
2023-03-16T11:36:08.798Z,79.75
2023-03-16T11:37:08.716Z,80.99
2023-03-16T11:38:08.722Z,80.7
2023-03-16T11:39:08.730Z,79.6
2023-03-16T11:40:08.724Z,79.94
2023-03-16T11:41:08.744Z,80.7
2023-03-16T11:42:08.723Z,81.41
2023-03-16T11:43:08.761Z,80.17
2023-03-16T11:44:08.734Z,79.88
2023-03-16T11:45:08.719Z,79.98
2023-03-16T11:46:08.797Z,79.88
2023-03-16T11:47:08.729Z,79.5
2023-03-16T11:48:11.843Z,78.74
2023-03-16T11:49:08.763Z,77.21
2023-03-16T11:50:08.738Z,75.74
2023-03-16T11:51:08.775Z,75.1
2023-03-16T11:52:08.782Z,74.82
2023-03-16T11:53:08.727Z,74.15
2023-03-16T11:54:08.768Z,73.86
2023-03-16T11:55:08.727Z,73.19
2023-03-16T11:56:08.731Z,73.77
2023-03-16T11:57:08.768Z,74.57
2023-03-16T11:58:08.743Z,75.96
2023-03-16T11:59:09.608Z,75.81
2023-03-16T12:00:08.757Z,76.39
2023-03-16T12:01:08.831Z,76.96
2023-03-16T12:02:08.882Z,77.25
2023-03-16T12:03:08.939Z,76.48
2023-03-16T12:04:08.873Z,75.71
2023-03-16T12:05:08.789Z,76.54
2023-03-16T12:06:26.001Z,77.25
2023-03-16T12:07:08.760Z,77.72
2023-03-16T12:08:08.827Z,77.53
2023-03-16T12:09:08.788Z,78.11
2023-03-16T12:10:11.526Z,77.34
2023-03-16T12:11:08.759Z,75.81
2023-03-16T12:12:08.752Z,76.39
2023-03-16T12:13:08.796Z,75.81
2023-03-16T12:14:08.789Z,76.35
2023-03-16T12:15:08.755Z,77.01
2023-03-16T12:16:09.013Z,77.4
2023-03-16T12:17:08.950Z,77.21
2023-03-16T12:18:11.737Z,77.3
2023-03-16T12:19:08.777Z,77.5
2023-03-16T12:20:08.802Z,77.5
2023-03-16T12:21:11.634Z,77.45
2023-03-16T12:22:08.800Z,77.65
2023-03-16T12:23:08.775Z,78.16
2023-03-16T12:24:08.828Z,77.69
2023-03-16T12:25:08.771Z,77.21
2023-03-16T12:26:08.772Z,77.21
2023-03-16T12:27:08.778Z,77.94
2023-03-16T12:28:08.792Z,78.22
2023-03-16T12:29:08.840Z,78.22
2023-03-16T12:30:08.786Z,78.03
2023-03-16T12:31:08.857Z,79.36
2023-03-16T12:32:11.979Z,78.45
2023-03-16T12:33:08.904Z,79.5
2023-03-16T12:34:08.858Z,79.31
2023-03-16T12:35:10.789Z,79.22
2023-03-16T12:36:08.851Z,78.45
2023-03-16T12:37:08.804Z,78.31
2023-03-16T12:38:08.809Z,78.36
2023-03-16T12:39:08.814Z,78.16
2023-03-16T12:40:08.847Z,78.36
2023-03-16T12:41:08.812Z,78.64
2023-03-16T12:42:08.813Z,77.87
2023-03-16T12:43:12.053Z,77.5
2023-03-16T12:44:08.867Z,77.87
2023-03-16T12:45:08.857Z,77.94
2023-03-16T12:46:08.964Z,78.13
2023-03-16T12:47:08.802Z,78.51
2023-03-16T12:48:08.839Z,79.08
2023-03-16T12:49:08.879Z,79.08
2023-03-16T12:50:08.818Z,79.46
2023-03-16T12:51:08.834Z,78.99
2023-03-16T12:52:10.797Z,79.36
2023-03-16T12:53:08.870Z,78.99